Time;durP1;ratioP1;P1;durP2;ratioP2;P2;SDS_P1;SDS_P2;PMS_P1;PMS_P2;Temp;Humidity;BMP_temperature;BMP_pressure;BME280_temperature;BME280_humidity;BME280_pressure;Samples;Min_cycle;Max_cycle;Signal;HPM_P1;HPM_P2
2023/07/11 00:00:34;;;;;;;17.50;15.20;;;;;;;;;;731544;190;920010;-58
2023/07/11 00:03:01;;;;;;;20.87;16.10;;;;;;;;;;746166;187;821503;-57
2023/07/11 00:05:26;;;;;;;18.77;16.57;;;;;;;;;;733800;187;919659;-58
2023/07/11 00:07:52;;;;;;;17.93;15.00;;;;;;;;;;736661;187;921866;-57
2023/07/11 00:10:17;;;;;;;20.93;15.97;;;;;;;;;;740675;187;920307;-59
2023/07/11 00:12:43;;;;;;;27.65;15.57;;;;;;;;;;744230;187;920969;-58
2023/07/11 00:15:10;;;;;;;21.77;14.83;;;;;;;;;;736635;188;922138;-58
2023/07/11 00:17:35;;;;;;;25.10;15.50;;;;;;;;;;734496;188;904853;-58
2023/07/11 00:20:01;;;;;;;20.23;14.47;;;;;;;;;;741392;189;819857;-57
2023/07/11 00:22:27;;;;;;;20.15;14.25;;;;;;;;;;739285;188;853024;-58
2023/07/11 00:24:53;;;;;;;20.13;14.20;;;;;;;;;;736390;189;914059;-58
2023/07/11 00:27:19;;;;;;;20.60;14.13;;;;;;;;;;750317;186;914658;-63
2023/07/11 00:29:45;;;;;;;22.13;14.50;;;;;;;;;;737525;185;914742;-58
2023/07/11 00:32:11;;;;;;;19.90;13.63;;;;;;;;;;733058;188;916671;-58
2023/07/11 00:34:37;;;;;;;15.37;13.77;;;;;;;;;;738635;188;919195;-59
2023/07/11 00:37:03;;;;;;;28.47;15.43;;;;;;;;;;734481;188;915967;-58
2023/07/11 00:39:28;;;;;;;19.57;14.33;;;;;;;;;;729015;188;919677;-57
2023/07/11 00:41:54;;;;;;;21.73;15.93;;;;;;;;;;738321;187;919977;-59
2023/07/11 00:44:20;;;;;;;25.03;15.10;;;;;;;;;;734446;188;919083;-58
2023/07/11 00:46:46;;;;;;;22.33;15.80;;;;;;;;;;731099;188;918434;-58
2023/07/11 00:49:12;;;;;;;22.70;13.48;;;;;;;;;;733195;189;918863;-58
2023/07/11 00:51:38;;;;;;;17.93;14.43;;;;;;;;;;737570;189;920662;-58
2023/07/11 00:54:03;;;;;;;19.30;14.20;;;;;;;;;;710989;194;919428;-58
2023/07/11 00:56:29;;;;;;;15.87;14.27;;;;;;;;;;732010;188;918890;-59
2023/07/11 00:58:55;;;;;;;19.33;15.57;;;;;;;;;;729745;188;919110;-59
2023/07/11 01:01:21;;;;;;;17.53;13.23;;;;;;;;;;729721;190;916882;-57
2023/07/11 01:03:47;;;;;;;21.23;15.70;;;;;;;;;;734577;189;919854;-59
2023/07/11 01:06:13;;;;;;;16.33;12.70;;;;;;;;;;712804;194;919344;-59
2023/07/11 01:08:39;;;;;;;18.10;13.07;;;;;;;;;;715758;196;916478;-58
2023/07/11 01:11:04;;;;;;;22.07;15.43;;;;;;;;;;730918;188;922205;-58
2023/07/11 01:13:30;;;;;;;20.40;14.63;;;;;;;;;;736830;188;834307;-58
2023/07/11 01:15:56;;;;;;;21.10;13.10;;;;;;;;;;742737;186;919318;-59
2023/07/11 01:18:22;;;;;;;24.33;15.90;;;;;;;;;;736501;188;919676;-59
2023/07/11 01:20:48;;;;;;;18.83;15.07;;;;;;;;;;736387;188;918783;-58
2023/07/11 01:23:15;;;;;;;22.03;15.20;;;;;;;;;;741444;188;932183;-59
2023/07/11 01:25:39;;;;;;;20.07;15.00;;;;;;;;;;735738;187;918961;-58
2023/07/11 01:28:05;;;;;;;20.27;14.20;;;;;;;;;;733485;187;920218;-58
2023/07/11 01:30:31;;;;;;;32.73;16.10;;;;;;;;;;737908;187;920334;-58
2023/07/11 01:32:57;;;;;;;25.93;17.20;;;;;;;;;;741418;188;849915;-58
2023/07/11 01:35:23;;;;;;;30.27;16.67;;;;;;;;;;717062;193;921510;-58
2023/07/11 01:37:49;;;;;;;20.17;16.60;;;;;;;;;;724216;191;920431;-59
2023/07/11 01:40:14;;;;;;;18.20;13.63;;;;;;;;;;743314;187;918275;-58
2023/07/11 01:42:40;;;;;;;19.47;13.83;;;;;;;;;;736121;188;916860;-59
2023/07/11 01:45:07;;;;;;;30.13;17.23;;;;;;;;;;732822;188;917033;-57
2023/07/11 01:47:33;;;;;;;23.00;15.73;;;;;;;;;;741472;187;919272;-58
2023/07/11 01:49:58;;;;;;;28.30;16.10;;;;;;;;;;738916;188;920744;-58
2023/07/11 01:52:24;;;;;;;31.73;16.73;;;;;;;;;;734851;189;918451;-58
2023/07/11 01:54:50;;;;;;;20.03;14.90;;;;;;;;;;715247;194;918970;-58
2023/07/11 01:57:16;;;;;;;22.03;14.57;;;;;;;;;;744147;187;919081;-57
2023/07/11 01:59:42;;;;;;;24.83;16.03;;;;;;;;;;740643;187;919614;-57
2023/07/11 02:02:08;;;;;;;21.03;15.70;;;;;;;;;;733973;187;918851;-58
2023/07/11 02:04:34;;;;;;;24.63;14.50;;;;;;;;;;741605;187;915137;-59
2023/07/11 02:06:59;;;;;;;25.47;15.90;;;;;;;;;;736136;187;915597;-58
2023/07/11 02:09:25;;;;;;;23.20;15.50;;;;;;;;;;736656;189;919203;-58
2023/07/11 02:11:51;;;;;;;20.13;16.20;;;;;;;;;;742636;189;920168;-57
2023/07/11 02:14:19;;;;;;;20.10;16.07;;;;;;;;;;737410;189;919532;-58
2023/07/11 02:16:45;;;;;;;32.57;14.00;;;;;;;;;;711014;195;918523;-57
2023/07/11 02:19:11;;;;;;;19.77;14.80;;;;;;;;;;710912;196;816134;-57
2023/07/11 02:21:38;;;;;;;25.50;15.00;;;;;;;;;;739030;188;923177;-57
2023/07/11 02:24:03;;;;;;;22.50;17.27;;;;;;;;;;733524;188;895377;-56
2023/07/11 02:26:29;;;;;;;21.73;17.17;;;;;;;;;;733593;186;916312;-58
2023/07/11 02:28:55;;;;;;;22.03;17.60;;;;;;;;;;743900;188;919439;-57
2023/07/11 02:31:21;;;;;;;18.20;15.00;;;;;;;;;;733363;188;926959;-58
2023/07/11 02:33:46;;;;;;;23.67;16.50;;;;;;;;;;740820;186;919423;-57
2023/07/11 02:36:12;;;;;;;20.20;14.87;;;;;;;;;;743451;187;920655;-58
2023/07/11 02:38:38;;;;;;;22.77;16.30;;;;;;;;;;738230;188;919862;-57
2023/07/11 02:41:04;;;;;;;31.58;16.40;;;;;;;;;;717676;193;917646;-57
2023/07/11 02:43:30;;;;;;;22.37;15.70;;;;;;;;;;737272;188;918870;-57
2023/07/11 02:45:56;;;;;;;28.43;14.60;;;;;;;;;;734104;189;918136;-57
2023/07/11 02:48:22;;;;;;;32.00;15.20;;;;;;;;;;735145;187;923154;-57
2023/07/11 02:50:47;;;;;;;27.30;15.53;;;;;;;;;;740765;187;919736;-57
2023/07/11 02:53:13;;;;;;;20.83;15.50;;;;;;;;;;746792;187;891696;-56
2023/07/11 02:55:39;;;;;;;34.00;16.03;;;;;;;;;;735235;188;918626;-58
2023/07/11 02:58:05;;;;;;;25.37;16.60;;;;;;;;;;737580;188;919729;-58
2023/07/11 03:00:31;;;;;;;20.83;14.37;;;;;;;;;;739780;189;817756;-58
2023/07/11 03:02:57;;;;;;;19.27;15.10;;;;;;;;;;737889;188;914342;-56
2023/07/11 03:05:22;;;;;;;27.50;17.57;;;;;;;;;;736290;187;919666;-57
2023/07/11 03:07:49;;;;;;;25.95;17.80;;;;;;;;;;717926;194;917519;-58
2023/07/11 03:10:15;;;;;;;25.43;16.97;;;;;;;;;;741058;185;918427;-56
2023/07/11 03:12:41;;;;;;;30.67;18.07;;;;;;;;;;740257;187;920224;-57
2023/07/11 03:15:07;;;;;;;21.30;17.80;;;;;;;;;;735780;188;918669;-58
2023/07/11 03:17:33;;;;;;;29.40;18.30;;;;;;;;;;742389;187;919510;-57
2023/07/11 03:19:58;;;;;;;25.73;18.17;;;;;;;;;;735300;187;919808;-57
2023/07/11 03:22:24;;;;;;;34.07;19.13;;;;;;;;;;733886;188;926265;-58
2023/07/11 03:24:50;;;;;;;31.23;19.80;;;;;;;;;;738972;189;918368;-57
2023/07/11 03:27:16;;;;;;;33.23;19.80;;;;;;;;;;713959;196;920552;-58
2023/07/11 03:29:42;;;;;;;28.15;19.92;;;;;;;;;;737292;188;923164;-57
2023/07/11 03:32:08;;;;;;;32.73;20.87;;;;;;;;;;736926;188;819673;-57
2023/07/11 03:34:34;;;;;;;27.53;19.17;;;;;;;;;;741159;187;919403;-57
2023/07/11 03:36:59;;;;;;;31.40;19.67;;;;;;;;;;739333;187;919134;-57
2023/07/11 03:39:25;;;;;;;27.40;17.63;;;;;;;;;;738464;186;919323;-58
2023/07/11 03:41:51;;;;;;;31.10;17.33;;;;;;;;;;737713;190;919704;-58
2023/07/11 03:44:17;;;;;;;17.93;16.03;;;;;;;;;;740423;187;920633;-58
2023/07/11 03:46:43;;;;;;;27.67;18.33;;;;;;;;;;737681;187;917438;-57
2023/07/11 03:49:09;;;;;;;21.23;16.50;;;;;;;;;;738293;189;871196;-58
2023/07/11 03:51:34;;;;;;;33.43;18.37;;;;;;;;;;736781;188;919995;-58
2023/07/11 03:54:00;;;;;;;34.23;18.03;;;;;;;;;;737584;187;919534;-58
2023/07/11 03:56:27;;;;;;;26.00;19.10;;;;;;;;;;736020;191;919464;-57
2023/07/11 03:58:52;;;;;;;28.30;19.33;;;;;;;;;;733727;188;917600;-57
2023/07/11 04:01:18;;;;;;;28.67;19.80;;;;;;;;;;734267;188;919280;-57
2023/07/11 04:03:44;;;;;;;30.23;19.20;;;;;;;;;;716232;195;919141;-58
2023/07/11 04:06:10;;;;;;;29.07;19.53;;;;;;;;;;725164;190;920179;-59
2023/07/11 04:08:35;;;;;;;21.17;17.50;;;;;;;;;;729251;188;919315;-58
2023/07/11 04:11:01;;;;;;;33.43;17.67;;;;;;;;;;732230;188;924682;-58
2023/07/11 04:13:27;;;;;;;28.23;17.60;;;;;;;;;;739667;188;919954;-58
2023/07/11 04:15:53;;;;;;;33.93;17.07;;;;;;;;;;736996;189;921622;-58
2023/07/11 04:18:19;;;;;;;55.33;18.67;;;;;;;;;;734761;189;922576;-57
2023/07/11 04:20:45;;;;;;;62.90;20.77;;;;;;;;;;748969;187;813754;-59
2023/07/11 04:23:11;;;;;;;45.30;20.80;;;;;;;;;;733300;187;918765;-59
2023/07/11 04:25:36;;;;;;;35.70;17.27;;;;;;;;;;736325;187;919673;-57
2023/07/11 04:28:03;;;;;;;26.60;17.00;;;;;;;;;;744900;187;918996;-58
2023/07/11 04:30:29;;;;;;;21.23;17.27;;;;;;;;;;739215;187;940786;-58
2023/07/11 04:32:55;;;;;;;20.67;16.90;;;;;;;;;;740542;187;918614;-61
2023/07/11 04:35:20;;;;;;;24.40;18.40;;;;;;;;;;736735;189;919522;-58
2023/07/11 04:37:46;;;;;;;30.10;21.97;;;;;;;;;;739082;188;916923;-59
2023/07/11 04:40:12;;;;;;;28.30;24.00;;;;;;;;;;736826;187;916446;-61
2023/07/11 04:42:38;;;;;;;31.60;26.42;;;;;;;;;;735633;187;919441;-57
2023/07/11 04:45:04;;;;;;;31.13;27.10;;;;;;;;;;739508;189;931998;-60
2023/07/11 04:47:30;;;;;;;32.53;29.00;;;;;;;;;;735153;189;1022074;-60
2023/07/11 04:49:56;;;;;;;34.43;25.77;;;;;;;;;;733415;189;816444;-58
2023/07/11 04:52:22;;;;;;;28.77;24.33;;;;;;;;;;742205;186;919445;-60
2023/07/11 04:54:48;;;;;;;28.83;25.93;;;;;;;;;;736342;189;918704;-59
2023/07/11 04:57:14;;;;;;;29.93;24.97;;;;;;;;;;735100;188;919531;-59
2023/07/11 04:59:40;;;;;;;31.23;24.77;;;;;;;;;;735721;188;919251;-58
2023/07/11 05:02:05;;;;;;;28.77;24.80;;;;;;;;;;740045;188;920849;-58
2023/07/11 05:04:31;;;;;;;29.35;23.55;;;;;;;;;;736002;187;931593;-58
2023/07/11 05:07:00;;;;;;;31.53;21.40;;;;;;;;;;736373;187;918153;-60
2023/07/11 05:09:23;;;;;;;23.13;20.90;;;;;;;;;;741760;189;920766;-59
2023/07/11 05:11:49;;;;;;;21.90;17.97;;;;;;;;;;737576;188;918203;-59
2023/07/11 05:14:15;;;;;;;25.33;18.30;;;;;;;;;;736539;188;919503;-59
2023/07/11 05:16:40;;;;;;;19.40;15.43;;;;;;;;;;738678;188;935856;-59
2023/07/11 05:19:06;;;;;;;18.30;16.33;;;;;;;;;;713630;195;920336;-59
2023/07/11 05:21:32;;;;;;;18.33;14.97;;;;;;;;;;737095;188;917955;-59
2023/07/11 05:23:58;;;;;;;19.10;15.67;;;;;;;;;;737207;188;820604;-59
2023/07/11 05:26:24;;;;;;;15.03;13.60;;;;;;;;;;743347;185;918301;-59
2023/07/11 05:28:50;;;;;;;16.33;14.63;;;;;;;;;;734390;187;917150;-58
2023/07/11 05:31:16;;;;;;;20.83;13.97;;;;;;;;;;734174;188;936921;-58
2023/07/11 05:33:41;;;;;;;16.43;13.57;;;;;;;;;;746361;187;752286;-58
2023/07/11 05:36:15;;;;;;;14.13;12.63;;;;;;;;;;743993;187;919275;-58
2023/07/11 05:38:34;;;;;;;14.87;12.23;;;;;;;;;;738996;188;920528;-58
2023/07/11 05:41:00;;;;;;;14.30;10.80;;;;;;;;;;741157;188;921126;-58
2023/07/11 05:43:25;;;;;;;14.03;10.80;;;;;;;;;;730548;188;918890;-58
2023/07/11 05:45:51;;;;;;;11.07;9.70;;;;;;;;;;727267;188;817267;-58
2023/07/11 05:48:17;;;;;;;12.40;9.93;;;;;;;;;;726388;191;919249;-59
2023/07/11 05:50:43;;;;;;;11.33;9.80;;;;;;;;;;735561;188;918662;-58
2023/07/11 05:53:09;;;;;;;12.27;9.73;;;;;;;;;;711042;194;919024;-58
2023/07/11 05:55:35;;;;;;;10.87;8.73;;;;;;;;;;734728;187;919317;-58
2023/07/11 05:58:01;;;;;;;10.30;8.60;;;;;;;;;;741117;189;851231;-58
2023/07/11 06:00:26;;;;;;;11.95;8.73;;;;;;;;;;735411;189;918922;-58
2023/07/11 06:02:52;;;;;;;16.27;9.23;;;;;;;;;;741959;187;946751;-58
2023/07/11 06:05:18;;;;;;;15.17;7.70;;;;;;;;;;741749;187;932299;-58
2023/07/11 06:07:45;;;;;;;10.52;7.50;;;;;;;;;;734318;187;933682;-57
2023/07/11 06:10:10;;;;;;;7.80;6.30;;;;;;;;;;736443;188;923469;-58
2023/07/11 06:12:36;;;;;;;8.20;6.73;;;;;;;;;;740352;188;908533;-57
2023/07/11 06:15:02;;;;;;;8.63;7.10;;;;;;;;;;737055;188;924517;-58
2023/07/11 06:17:27;;;;;;;10.37;6.73;;;;;;;;;;735763;188;918920;-57
2023/07/11 06:19:53;;;;;;;10.30;6.30;;;;;;;;;;736273;188;918492;-57
2023/07/11 06:22:19;;;;;;;11.73;7.07;;;;;;;;;;739026;188;816216;-57
2023/07/11 06:24:45;;;;;;;6.93;5.33;;;;;;;;;;718933;194;919606;-56
2023/07/11 06:27:11;;;;;;;7.87;5.40;;;;;;;;;;722625;194;817163;-57
2023/07/11 06:29:37;;;;;;;9.90;4.53;;;;;;;;;;721579;194;920575;-57
2023/07/11 06:32:03;;;;;;;7.13;5.03;;;;;;;;;;734348;188;918499;-57
2023/07/11 06:34:28;;;;;;;5.73;4.07;;;;;;;;;;738612;187;871131;-59
2023/07/11 06:36:54;;;;;;;5.70;4.10;;;;;;;;;;739750;189;912591;-57
2023/07/11 06:39:20;;;;;;;6.40;4.17;;;;;;;;;;736530;188;916353;-57
2023/07/11 06:41:46;;;;;;;6.80;4.97;;;;;;;;;;730605;189;872313;-58
2023/07/11 06:44:12;;;;;;;6.57;4.40;;;;;;;;;;736482;189;915564;-58
2023/07/11 06:46:38;;;;;;;6.23;4.47;;;;;;;;;;742373;184;909360;-58
2023/07/11 06:49:03;;;;;;;8.27;3.83;;;;;;;;;;738410;187;916689;-57
2023/07/11 06:51:29;;;;;;;7.60;3.70;;;;;;;;;;733886;188;918654;-58
2023/07/11 06:53:55;;;;;;;7.93;4.40;;;;;;;;;;713570;196;916466;-58
2023/07/11 06:56:21;;;;;;;7.13;4.03;;;;;;;;;;728385;191;921296;-57
2023/07/11 06:58:47;;;;;;;7.23;4.50;;;;;;;;;;733374;188;819596;-58
2023/07/11 07:01:13;;;;;;;5.40;3.90;;;;;;;;;;745592;187;628854;-58
2023/07/11 07:03:38;;;;;;;5.30;3.67;;;;;;;;;;741037;189;614442;-58
2023/07/11 07:06:04;;;;;;;7.53;4.53;;;;;;;;;;719952;191;632371;-57
2023/07/11 07:08:30;;;;;;;6.50;3.90;;;;;;;;;;722893;194;617228;-58
2023/07/11 07:10:56;;;;;;;5.57;3.80;;;;;;;;;;748263;187;622427;-58
2023/07/11 07:13:22;;;;;;;8.05;3.30;;;;;;;;;;738501;188;630288;-58
2023/07/11 07:15:48;;;;;;;6.70;4.20;;;;;;;;;;742077;188;629888;-58
2023/07/11 07:18:14;;;;;;;5.93;3.77;;;;;;;;;;743405;188;902891;-58
2023/07/11 07:20:39;;;;;;;7.87;4.13;;;;;;;;;;740523;187;655532;-58
2023/07/11 07:23:05;;;;;;;9.60;4.13;;;;;;;;;;736505;189;917505;-58
2023/07/11 07:25:31;;;;;;;4.43;3.73;;;;;;;;;;742898;189;921058;-57
2023/07/11 07:27:57;;;;;;;7.20;4.23;;;;;;;;;;727582;189;922051;-59
2023/07/11 07:30:23;;;;;;;6.20;4.40;;;;;;;;;;739397;187;906702;-59
2023/07/11 07:32:49;;;;;;;5.07;3.53;;;;;;;;;;743808;187;718229;-59
2023/07/11 07:35:14;;;;;;;8.10;4.13;;;;;;;;;;739416;187;918318;-59
2023/07/11 07:37:40;;;;;;;9.13;4.40;;;;;;;;;;737382;187;936836;-59
2023/07/11 07:40:07;;;;;;;7.13;4.10;;;;;;;;;;730528;191;919471;-59
2023/07/11 07:42:33;;;;;;;7.33;3.73;;;;;;;;;;718709;195;816622;-59
2023/07/11 07:44:58;;;;;;;6.10;4.00;;;;;;;;;;733548;188;844595;-59
2023/07/11 07:47:24;;;;;;;6.27;4.13;;;;;;;;;;711229;195;913992;-59
2023/07/11 07:49:50;;;;;;;5.33;4.00;;;;;;;;;;737566;188;903390;-60
2023/07/11 07:52:16;;;;;;;8.10;4.03;;;;;;;;;;727838;189;949991;-59
2023/07/11 07:54:42;;;;;;;8.00;4.43;;;;;;;;;;730174;191;920347;-58
2023/07/11 07:57:07;;;;;;;5.03;3.62;;;;;;;;;;739080;189;918820;-58
2023/07/11 07:59:33;;;;;;;6.70;3.93;;;;;;;;;;718593;191;919346;-58
2023/07/11 08:01:59;;;;;;;5.60;3.60;;;;;;;;;;706645;191;919375;-61
2023/07/11 08:04:25;;;;;;;7.40;3.70;;;;;;;;;;719299;191;919519;-60
2023/07/11 08:06:51;;;;;;;6.90;3.93;;;;;;;;;;729915;191;922383;-61
2023/07/11 08:09:18;;;;;;;5.63;4.30;;;;;;;;;;741858;187;915976;-59
2023/07/11 08:11:43;;;;;;;6.40;4.07;;;;;;;;;;737651;188;918762;-59
2023/07/11 08:14:08;;;;;;;5.50;3.87;;;;;;;;;;732382;188;926027;-58
2023/07/11 08:16:34;;;;;;;4.77;3.67;;;;;;;;;;730740;188;916120;-59
2023/07/11 08:19:01;;;;;;;5.70;3.40;;;;;;;;;;736307;187;917461;-59
2023/07/11 08:21:26;;;;;;;6.23;4.13;;;;;;;;;;735722;188;920491;-59
2023/07/11 08:23:52;;;;;;;5.90;3.90;;;;;;;;;;738460;187;922369;-59
2023/07/11 08:26:18;;;;;;;4.20;3.07;;;;;;;;;;735045;188;910225;-60
2023/07/11 08:28:43;;;;;;;6.50;4.10;;;;;;;;;;720172;195;816717;-59
2023/07/11 08:31:09;;;;;;;5.30;3.90;;;;;;;;;;734074;188;917040;-59
2023/07/11 08:33:35;;;;;;;4.80;3.73;;;;;;;;;;738973;188;921282;-59
2023/07/11 08:36:01;;;;;;;4.73;4.13;;;;;;;;;;738542;188;919957;-60
2023/07/11 08:38:27;;;;;;;6.10;4.50;;;;;;;;;;743693;187;814746;-60
2023/07/11 08:40:53;;;;;;;5.23;3.83;;;;;;;;;;740624;187;916537;-58
2023/07/11 08:43:19;;;;;;;5.23;3.57;;;;;;;;;;735810;188;920034;-59
2023/07/11 08:45:46;;;;;;;5.80;4.03;;;;;;;;;;741490;188;923993;-59
2023/07/11 08:48:12;;;;;;;7.73;3.63;;;;;;;;;;735904;188;924044;-58
2023/07/11 08:50:38;;;;;;;6.23;3.63;;;;;;;;;;734925;187;919198;-59
2023/07/11 08:53:04;;;;;;;10.73;3.93;;;;;;;;;;714006;195;922914;-58
2023/07/11 08:55:30;;;;;;;4.83;3.40;;;;;;;;;;709526;195;939268;-59
2023/07/11 08:57:56;;;;;;;4.90;3.20;;;;;;;;;;723929;191;919123;-60
2023/07/11 09:00:23;;;;;;;5.47;3.57;;;;;;;;;;716521;191;916822;-58
2023/07/11 09:03:00;;;;;;;4.93;3.30;;;;;;;;;;739886;187;918486;-59
2023/07/11 09:05:36;;;;;;;4.80;3.33;;;;;;;;;;744017;186;816774;-61
2023/07/11 09:08:02;;;;;;;7.33;3.70;;;;;;;;;;739774;187;920287;-60
2023/07/11 09:10:30;;;;;;;6.47;3.53;;;;;;;;;;738847;187;922119;-60
2023/07/11 09:12:58;;;;;;;4.60;3.20;;;;;;;;;;739124;187;816373;-61
2023/07/11 09:15:28;;;;;;;4.27;3.27;;;;;;;;;;751209;186;919491;-59
2023/07/11 09:17:53;;;;;;;5.63;3.23;;;;;;;;;;737163;187;919229;-60
2023/07/11 09:20:29;;;;;;;4.20;3.27;;;;;;;;;;738268;188;920137;-60
2023/07/11 09:23:09;;;;;;;5.53;3.07;;;;;;;;;;736751;188;918812;-59
2023/07/11 09:25:33;;;;;;;3.95;3.12;;;;;;;;;;735387;189;919274;-60
2023/07/11 09:28:01;;;;;;;4.67;3.43;;;;;;;;;;728471;189;904447;-60
2023/07/11 09:30:26;;;;;;;6.23;3.47;;;;;;;;;;739302;187;919799;-59
2023/07/11 09:32:52;;;;;;;5.70;3.10;;;;;;;;;;739546;188;922021;-60
2023/07/11 09:35:19;;;;;;;5.50;3.20;;;;;;;;;;741533;189;918644;-60
2023/07/11 09:37:45;;;;;;;4.43;2.97;;;;;;;;;;742112;187;921631;-60
2023/07/11 09:40:12;;;;;;;4.00;2.73;;;;;;;;;;730455;189;919494;-59
2023/07/11 09:42:38;;;;;;;6.20;3.87;;;;;;;;;;716499;194;922914;-59
2023/07/11 09:45:09;;;;;;;6.30;3.27;;;;;;;;;;735398;188;909090;-59
2023/07/11 09:47:35;;;;;;;5.00;3.67;;;;;;;;;;733830;188;919547;-60
2023/07/11 09:50:01;;;;;;;5.27;3.50;;;;;;;;;;736511;188;919332;-60
2023/07/11 09:52:27;;;;;;;5.10;3.60;;;;;;;;;;748485;187;917046;-59
2023/07/11 09:54:52;;;;;;;4.57;3.20;;;;;;;;;;734723;189;919236;-60
2023/07/11 09:57:18;;;;;;;7.77;3.83;;;;;;;;;;741388;187;941427;-59
2023/07/11 09:59:44;;;;;;;6.43;3.37;;;;;;;;;;741753;188;922578;-60
2023/07/11 10:02:11;;;;;;;5.10;2.90;;;;;;;;;;739757;187;917124;-60
2023/07/11 10:04:36;;;;;;;4.80;3.70;;;;;;;;;;742366;185;917163;-61
2023/07/11 10:07:03;;;;;;;4.43;2.70;;;;;;;;;;735445;189;873154;-61
2023/07/11 10:09:28;;;;;;;6.63;3.93;;;;;;;;;;739209;188;918308;-59
2023/07/11 10:12:09;;;;;;;4.33;3.33;;;;;;;;;;729186;189;921360;-60
2023/07/11 10:14:35;;;;;;;6.33;3.20;;;;;;;;;;728694;188;921450;-61
2023/07/11 10:17:02;;;;;;;6.60;3.57;;;;;;;;;;730717;187;935860;-61
2023/07/11 10:19:28;;;;;;;5.70;3.17;;;;;;;;;;741871;189;908616;-61
2023/07/11 10:21:54;;;;;;;6.53;3.70;;;;;;;;;;717438;194;915443;-61
2023/07/11 10:24:22;;;;;;;5.03;2.80;;;;;;;;;;719773;191;915355;-62
2023/07/11 10:26:48;;;;;;;6.00;3.57;;;;;;;;;;712673;194;915302;-60
2023/07/11 10:29:13;;;;;;;6.80;3.20;;;;;;;;;;743267;186;915695;-60
2023/07/11 10:31:39;;;;;;;4.37;2.50;;;;;;;;;;733075;189;920138;-60
2023/07/11 10:34:06;;;;;;;4.00;3.10;;;;;;;;;;738190;188;916360;-60
2023/07/11 10:36:33;;;;;;;4.60;2.77;;;;;;;;;;742334;187;813859;-61
2023/07/11 10:38:58;;;;;;;3.47;2.73;;;;;;;;;;741838;187;814047;-57
2023/07/11 10:41:26;;;;;;;6.47;3.47;;;;;;;;;;739599;187;820002;-59
2023/07/11 10:43:52;;;;;;;4.77;2.77;;;;;;;;;;734712;189;919043;-59
2023/07/11 10:46:32;;;;;;;6.20;3.30;;;;;;;;;;735317;188;908913;-58
2023/07/11 10:48:58;;;;;;;5.37;3.60;;;;;;;;;;742085;186;817581;-58
2023/07/11 10:51:27;;;;;;;7.53;3.20;;;;;;;;;;741272;186;920008;-59
2023/07/11 10:54:07;;;;;;;4.83;3.00;;;;;;;;;;739684;189;920253;-57
2023/07/11 10:56:33;;;;;;;4.50;3.53;;;;;;;;;;743015;184;830719;-58
2023/07/11 10:58:59;;;;;;;4.03;2.63;;;;;;;;;;742660;187;914667;-59
2023/07/11 11:01:41;;;;;;;4.57;3.13;;;;;;;;;;736965;187;914578;-59
2023/07/11 11:04:08;;;;;;;4.10;2.87;;;;;;;;;;732119;189;920566;-57
2023/07/11 11:06:33;;;;;;;4.23;2.90;;;;;;;;;;740986;187;632955;-59
2023/07/11 11:09:07;;;;;;;6.43;3.13;;;;;;;;;;742389;187;628988;-58
2023/07/11 11:11:34;;;;;;;4.87;2.70;;;;;;;;;;737737;188;834197;-59
2023/07/11 11:14:10;;;;;;;4.57;2.97;;;;;;;;;;731936;188;921972;-58
2023/07/11 11:16:37;;;;;;;3.33;2.67;;;;;;;;;;733919;187;919790;-58
2023/07/11 11:19:03;;;;;;;6.47;2.77;;;;;;;;;;738399;188;922999;-58
2023/07/11 11:21:29;;;;;;;5.60;3.10;;;;;;;;;;721234;192;721052;-57
2023/07/11 11:24:06;;;;;;;4.80;3.03;;;;;;;;;;716446;191;826278;-58
2023/07/11 11:26:33;;;;;;;4.80;2.80;;;;;;;;;;737072;187;919610;-58
2023/07/11 11:29:01;;;;;;;3.80;2.70;;;;;;;;;;739704;188;717644;-57
2023/07/11 11:31:27;;;;;;;5.77;2.80;;;;;;;;;;733080;188;891306;-56
2023/07/11 11:34:13;;;;;;;3.43;2.40;;;;;;;;;;737682;187;820487;-60
2023/07/11 11:36:50;;;;;;;4.90;2.93;;;;;;;;;;720916;192;817942;-59
2023/07/11 11:39:18;;;;;;;3.77;2.63;;;;;;;;;;743023;187;816941;-57
2023/07/11 11:41:44;;;;;;;3.93;2.67;;;;;;;;;;732258;189;853492;-58
2023/07/11 11:44:14;;;;;;;4.93;2.80;;;;;;;;;;716982;194;911932;-56
2023/07/11 11:46:40;;;;;;;4.50;3.13;;;;;;;;;;734407;187;919582;-58
2023/07/11 11:49:07;;;;;;;4.30;2.73;;;;;;;;;;733004;188;919891;-58
2023/07/11 11:51:31;;;;;;;4.00;2.80;;;;;;;;;;734142;189;918187;-57
2023/07/11 11:54:02;;;;;;;4.40;2.80;;;;;;;;;;732162;189;920076;-56
2023/07/11 11:56:28;;;;;;;7.00;3.03;;;;;;;;;;731781;189;927130;-58
2023/07/11 11:58:57;;;;;;;4.30;2.97;;;;;;;;;;736691;186;946626;-58
2023/07/11 12:01:29;;;;;;;5.10;2.70;;;;;;;;;;718995;194;915927;-59
2023/07/11 12:03:55;;;;;;;5.83;2.77;;;;;;;;;;713151;195;874483;-57
2023/07/11 12:06:40;;;;;;;4.00;2.97;;;;;;;;;;711452;194;1118428;-57
2023/07/11 12:09:09;;;;;;;4.67;2.87;;;;;;;;;;735071;188;911965;-57
2023/07/11 12:11:35;;;;;;;4.47;2.83;;;;;;;;;;741143;188;833288;-58
2023/07/11 12:14:17;;;;;;;3.93;2.93;;;;;;;;;;718575;194;918014;-57
2023/07/11 12:16:42;;;;;;;4.57;2.90;;;;;;;;;;730845;191;632210;-57
2023/07/11 12:19:08;;;;;;;4.37;3.10;;;;;;;;;;735876;188;818362;-57
2023/07/11 12:21:39;;;;;;;5.45;3.00;;;;;;;;;;734406;188;837214;-56
2023/07/11 12:24:10;;;;;;;3.80;2.60;;;;;;;;;;734781;188;919485;-58
2023/07/11 12:26:36;;;;;;;4.10;2.67;;;;;;;;;;742808;187;812069;-57
2023/07/11 12:29:17;;;;;;;3.67;2.60;;;;;;;;;;733787;187;918757;-57
2023/07/11 12:31:43;;;;;;;5.77;2.97;;;;;;;;;;729342;188;919079;-57
2023/07/11 12:34:09;;;;;;;4.50;2.83;;;;;;;;;;718241;192;920103;-60
2023/07/11 12:36:39;;;;;;;4.63;2.90;;;;;;;;;;742299;187;918814;-59
2023/07/11 12:39:09;;;;;;;5.67;2.97;;;;;;;;;;744379;187;919329;-58
2023/07/11 12:41:39;;;;;;;4.70;3.27;;;;;;;;;;734517;187;919485;-59
2023/07/11 12:44:05;;;;;;;3.97;2.83;;;;;;;;;;731288;188;919609;-59
2023/07/11 12:46:34;;;;;;;4.47;2.80;;;;;;;;;;734841;189;918682;-59
2023/07/11 12:48:58;;;;;;;4.20;2.50;;;;;;;;;;735072;189;852408;-58
2023/07/11 12:51:24;;;;;;;5.47;2.80;;;;;;;;;;736616;189;921142;-58
2023/07/11 12:53:51;;;;;;;4.90;3.00;;;;;;;;;;732466;190;919208;-57
2023/07/11 12:56:17;;;;;;;4.27;2.43;;;;;;;;;;740689;188;919264;-58
2023/07/11 12:58:43;;;;;;;4.30;3.00;;;;;;;;;;717599;193;918879;-59
2023/07/11 13:01:09;;;;;;;8.53;3.97;;;;;;;;;;718043;191;918844;-58
2023/07/11 13:03:36;;;;;;;5.80;3.40;;;;;;;;;;720575;194;920787;-57
2023/07/11 13:06:02;;;;;;;3.53;2.20;;;;;;;;;;739500;187;921841;-59
2023/07/11 13:08:29;;;;;;;4.12;2.72;;;;;;;;;;735767;187;919609;-58
2023/07/11 13:10:55;;;;;;;9.60;3.42;;;;;;;;;;740588;188;919603;-59
2023/07/11 13:13:22;;;;;;;8.07;3.77;;;;;;;;;;746801;185;919796;-56
2023/07/11 13:15:48;;;;;;;4.27;3.23;;;;;;;;;;736577;188;910699;-57
2023/07/11 13:18:30;;;;;;;8.20;3.27;;;;;;;;;;737200;188;917567;-58
2023/07/11 13:20:55;;;;;;;4.62;3.00;;;;;;;;;;735386;188;863437;-57
2023/07/11 13:23:21;;;;;;;5.80;3.00;;;;;;;;;;745458;186;917848;-56
2023/07/11 13:25:47;;;;;;;4.50;3.30;;;;;;;;;;740505;187;919924;-57
2023/07/11 13:28:15;;;;;;;4.50;2.97;;;;;;;;;;731147;189;919972;-59
2023/07/11 13:30:41;;;;;;;8.90;3.60;;;;;;;;;;722152;194;820658;-58
2023/07/11 13:33:06;;;;;;;4.83;3.27;;;;;;;;;;731569;188;919010;-58
2023/07/11 13:35:32;;;;;;;6.00;3.57;;;;;;;;;;728828;189;919069;-58
2023/07/11 13:37:59;;;;;;;3.80;2.70;;;;;;;;;;739219;188;919516;-58
2023/07/11 13:40:35;;;;;;;4.03;3.13;;;;;;;;;;727970;192;918666;-58
2023/07/11 13:43:01;;;;;;;3.90;2.93;;;;;;;;;;743944;187;812222;-59
2023/07/11 13:45:27;;;;;;;4.17;3.27;;;;;;;;;;734365;189;819182;-59
2023/07/11 13:47:52;;;;;;;5.07;3.27;;;;;;;;;;713678;194;816845;-59
2023/07/11 13:50:26;;;;;;;4.73;3.10;;;;;;;;;;729782;188;937054;-57
2023/07/11 13:52:51;;;;;;;4.37;3.20;;;;;;;;;;741276;187;909752;-58
2023/07/11 13:55:25;;;;;;;4.00;3.13;;;;;;;;;;736300;188;918283;-57
2023/07/11 13:57:51;;;;;;;5.43;3.57;;;;;;;;;;733459;187;918878;-59
2023/07/11 14:00:17;;;;;;;4.70;3.40;;;;;;;;;;738423;188;928166;-59
2023/07/11 14:02:43;;;;;;;4.57;3.07;;;;;;;;;;734704;189;919395;-59
2023/07/11 14:05:13;;;;;;;6.63;3.30;;;;;;;;;;713200;194;928100;-59
2023/07/11 14:07:39;;;;;;;6.40;3.70;;;;;;;;;;740245;188;908691;-58
2023/07/11 14:10:05;;;;;;;5.07;3.30;;;;;;;;;;738665;188;921920;-59
2023/07/11 14:12:31;;;;;;;4.40;3.00;;;;;;;;;;734754;189;918433;-58
2023/07/11 14:14:57;;;;;;;7.80;3.03;;;;;;;;;;733454;189;920462;-59